Terminal Aerodrome Forecast
Issued by NWS Memphis, TN

Home | Current Version | Previous Version | Text Only | Print | Product List | Glossary On
Versions: 1 2 3 4 5 6 7 8 9 10 11 12 13 14 15 16 17 18
000
FTUS44 KMEG 251130
TAFJBR
TAF
KJBR 251130Z 2512/2612 20012G18KT P6SM OVC007
     FM251400 23015G25KT P6SM SCT025
     FM260000 26010KT P6SM SCT060
     FM260700 36012KT P6SM BKN040
      TEMPO 2608/2612 BKN008 OVC012=

USA.gov is the U.S. government's official web portal to all federal, state and local government web resources and services.